sensor_id;sensor_type;location;lat;lon;timestamp;temperature;humidity
30250;DHT22;17064;47.974;13.826;2023-06-10T00:04:02;13.70;99.90
30250;DHT22;17064;47.974;13.826;2023-06-10T00:09:04;13.60;99.90
30250;DHT22;17064;47.974;13.826;2023-06-10T00:14:05;13.60;99.90
30250;DHT22;17064;47.974;13.826;2023-06-10T00:19:06;13.50;99.90
30250;DHT22;17064;47.974;13.826;2023-06-10T00:24:09;13.40;99.90
30250;DHT22;17064;47.974;13.826;2023-06-10T00:29:12;13.30;99.90
30250;DHT22;17064;47.974;13.826;2023-06-10T00:34:14;13.20;99.90
30250;DHT22;17064;47.974;13.826;2023-06-10T00:39:15;13.20;99.90
30250;DHT22;17064;47.974;13.826;2023-06-10T00:44:17;13.10;99.90
30250;DHT22;17064;47.974;13.826;2023-06-10T00:49:18;13.00;99.90
30250;DHT22;17064;47.974;13.826;2023-06-10T00:54:19;13.00;99.90
30250;DHT22;17064;47.974;13.826;2023-06-10T00:59:20;13.00;99.90
30250;DHT22;17064;47.974;13.826;2023-06-10T01:04:21;13.00;99.90
30250;DHT22;17064;47.974;13.826;2023-06-10T01:09:38;12.90;99.90
30250;DHT22;17064;47.974;13.826;2023-06-10T01:14:41;12.90;99.90
30250;DHT22;17064;47.974;13.826;2023-06-10T01:19:53;12.80;99.90
30250;DHT22;17064;47.974;13.826;2023-06-10T01:24:55;12.80;99.90
30250;DHT22;17064;47.974;13.826;2023-06-10T01:30:08;12.70;99.90
30250;DHT22;17064;47.974;13.826;2023-06-10T01:35:12;12.70;99.90
30250;DHT22;17064;47.974;13.826;2023-06-10T01:40:13;12.60;99.90
30250;DHT22;17064;47.974;13.826;2023-06-10T01:45:14;12.50;99.90
30250;DHT22;17064;47.974;13.826;2023-06-10T01:50:15;12.40;99.90
30250;DHT22;17064;47.974;13.826;2023-06-10T01:55:17;12.40;99.90
30250;DHT22;17064;47.974;13.826;2023-06-10T02:00:17;12.40;99.90
30250;DHT22;17064;47.974;13.826;2023-06-10T02:05:18;12.30;99.90
30250;DHT22;17064;47.974;13.826;2023-06-10T02:10:19;12.30;99.90
30250;DHT22;17064;47.974;13.826;2023-06-10T02:15:20;12.30;99.90
30250;DHT22;17064;47.974;13.826;2023-06-10T02:20:21;12.20;99.90
30250;DHT22;17064;47.974;13.826;2023-06-10T02:25:22;12.20;99.90
30250;DHT22;17064;47.974;13.826;2023-06-10T02:30:22;12.10;99.90
30250;DHT22;17064;47.974;13.826;2023-06-10T02:35:23;12.10;99.90
30250;DHT22;17064;47.974;13.826;2023-06-10T02:40:24;12.00;99.90
30250;DHT22;17064;47.974;13.826;2023-06-10T02:45:25;12.00;99.90
30250;DHT22;17064;47.974;13.826;2023-06-10T02:50:26;11.90;99.90
30250;DHT22;17064;47.974;13.826;2023-06-10T02:55:26;11.80;99.90
30250;DHT22;17064;47.974;13.826;2023-06-10T03:00:28;11.80;99.90
30250;DHT22;17064;47.974;13.826;2023-06-10T03:05:29;11.70;99.90
30250;DHT22;17064;47.974;13.826;2023-06-10T03:10:30;11.70;99.90
30250;DHT22;17064;47.974;13.826;2023-06-10T03:15:33;11.70;99.90
30250;DHT22;17064;47.974;13.826;2023-06-10T03:20:34;11.60;99.90
30250;DHT22;17064;47.974;13.826;2023-06-10T03:25:37;11.60;99.90
30250;DHT22;17064;47.974;13.826;2023-06-10T03:30:38;11.60;99.90
30250;DHT22;17064;47.974;13.826;2023-06-10T03:35:38;11.60;99.90
30250;DHT22;17064;47.974;13.826;2023-06-10T03:40:39;11.60;99.90
30250;DHT22;17064;47.974;13.826;2023-06-10T03:45:40;11.50;99.90
30250;DHT22;17064;47.974;13.826;2023-06-10T03:50:41;11.50;99.90
30250;DHT22;17064;47.974;13.826;2023-06-10T03:55:42;11.60;99.90
30250;DHT22;17064;47.974;13.826;2023-06-10T04:00:43;11.70;99.90
30250;DHT22;17064;47.974;13.826;2023-06-10T04:05:44;11.80;99.90
30250;DHT22;17064;47.974;13.826;2023-06-10T04:10:44;12.00;99.90
30250;DHT22;17064;47.974;13.826;2023-06-10T04:15:45;12.10;99.90
30250;DHT22;17064;47.974;13.826;2023-06-10T04:20:46;12.30;99.90
30250;DHT22;17064;47.974;13.826;2023-06-10T04:25:47;12.50;99.90
30250;DHT22;17064;47.974;13.826;2023-06-10T04:30:48;12.70;99.90
30250;DHT22;17064;47.974;13.826;2023-06-10T04:35:49;12.90;99.90
30250;DHT22;17064;47.974;13.826;2023-06-10T04:40:50;13.20;99.90
30250;DHT22;17064;47.974;13.826;2023-06-10T04:45:51;13.40;99.90
30250;DHT22;17064;47.974;13.826;2023-06-10T04:50:51;13.60;99.90
30250;DHT22;17064;47.974;13.826;2023-06-10T04:55:52;13.90;99.90
30250;DHT22;17064;47.974;13.826;2023-06-10T05:00:53;14.10;99.90
30250;DHT22;17064;47.974;13.826;2023-06-10T05:05:53;14.30;99.90
30250;DHT22;17064;47.974;13.826;2023-06-10T05:10:54;14.60;99.90
30250;DHT22;17064;47.974;13.826;2023-06-10T05:15:56;14.80;99.90
30250;DHT22;17064;47.974;13.826;2023-06-10T05:20:56;15.00;99.90
30250;DHT22;17064;47.974;13.826;2023-06-10T05:25:57;15.20;99.90
30250;DHT22;17064;47.974;13.826;2023-06-10T05:30:58;15.50;99.90
30250;DHT22;17064;47.974;13.826;2023-06-10T05:35:59;15.70;99.90
30250;DHT22;17064;47.974;13.826;2023-06-10T05:41:00;15.90;99.90
30250;DHT22;17064;47.974;13.826;2023-06-10T05:46:01;16.20;99.90
30250;DHT22;17064;47.974;13.826;2023-06-10T05:51:01;16.40;99.90
30250;DHT22;17064;47.974;13.826;2023-06-10T05:56:02;16.70;99.90
30250;DHT22;17064;47.974;13.826;2023-06-10T06:01:03;17.00;99.90
30250;DHT22;17064;47.974;13.826;2023-06-10T06:06:04;17.40;99.90
30250;DHT22;17064;47.974;13.826;2023-06-10T06:11:05;17.70;99.90
30250;DHT22;17064;47.974;13.826;2023-06-10T06:16:06;18.00;99.90
30250;DHT22;17064;47.974;13.826;2023-06-10T06:21:06;18.00;99.90
30250;DHT22;17064;47.974;13.826;2023-06-10T06:26:07;18.30;99.90
30250;DHT22;17064;47.974;13.826;2023-06-10T06:31:08;18.60;99.90
30250;DHT22;17064;47.974;13.826;2023-06-10T06:36:08;18.70;99.90
30250;DHT22;17064;47.974;13.826;2023-06-10T06:41:09;18.90;99.90
30250;DHT22;17064;47.974;13.826;2023-06-10T06:46:10;19.10;99.90
30250;DHT22;17064;47.974;13.826;2023-06-10T06:51:11;19.30;99.90
30250;DHT22;17064;47.974;13.826;2023-06-10T06:56:12;19.40;99.90
30250;DHT22;17064;47.974;13.826;2023-06-10T07:01:13;19.50;99.90
30250;DHT22;17064;47.974;13.826;2023-06-10T07:06:13;19.30;99.90
30250;DHT22;17064;47.974;13.826;2023-06-10T07:11:14;19.30;99.90
30250;DHT22;17064;47.974;13.826;2023-06-10T07:16:15;19.60;99.90
30250;DHT22;17064;47.974;13.826;2023-06-10T07:21:16;19.70;99.90
30250;DHT22;17064;47.974;13.826;2023-06-10T07:26:16;19.30;99.90
30250;DHT22;17064;47.974;13.826;2023-06-10T07:31:17;19.10;99.90
30250;DHT22;17064;47.974;13.826;2023-06-10T07:36:18;19.00;99.90
30250;DHT22;17064;47.974;13.826;2023-06-10T07:41:19;18.80;99.90
30250;DHT22;17064;47.974;13.826;2023-06-10T07:46:20;18.60;99.90
30250;DHT22;17064;47.974;13.826;2023-06-10T07:51:22;18.70;99.90
30250;DHT22;17064;47.974;13.826;2023-06-10T07:56:22;18.80;99.90
30250;DHT22;17064;47.974;13.826;2023-06-10T08:01:24;18.80;99.90
30250;DHT22;17064;47.974;13.826;2023-06-10T08:06:25;19.00;99.90
30250;DHT22;17064;47.974;13.826;2023-06-10T08:11:25;19.30;99.90
30250;DHT22;17064;47.974;13.826;2023-06-10T08:16:30;19.40;99.90
30250;DHT22;17064;47.974;13.826;2023-06-10T08:21:30;19.60;99.90
30250;DHT22;17064;47.974;13.826;2023-06-10T08:26:31;19.80;99.90
30250;DHT22;17064;47.974;13.826;2023-06-10T08:31:32;19.80;99.90
30250;DHT22;17064;47.974;13.826;2023-06-10T08:36:33;19.90;99.90
30250;DHT22;17064;47.974;13.826;2023-06-10T08:41:37;20.00;99.90
30250;DHT22;17064;47.974;13.826;2023-06-10T08:46:45;20.20;99.90
30250;DHT22;17064;47.974;13.826;2023-06-10T08:51:48;20.40;99.90
30250;DHT22;17064;47.974;13.826;2023-06-10T08:56:51;20.90;99.90
30250;DHT22;17064;47.974;13.826;2023-06-10T09:01:53;21.30;99.90
30250;DHT22;17064;47.974;13.826;2023-06-10T09:06:56;21.60;99.90
30250;DHT22;17064;47.974;13.826;2023-06-10T09:11:57;21.60;99.90
30250;DHT22;17064;47.974;13.826;2023-06-10T09:16:58;21.70;99.90
30250;DHT22;17064;47.974;13.826;2023-06-10T09:21:59;21.60;99.90
30250;DHT22;17064;47.974;13.826;2023-06-10T09:27:08;21.60;99.90
30250;DHT22;17064;47.974;13.826;2023-06-10T09:32:09;21.70;99.90
30250;DHT22;17064;47.974;13.826;2023-06-10T09:37:10;22.00;99.90
30250;DHT22;17064;47.974;13.826;2023-06-10T09:42:16;21.90;99.90
30250;DHT22;17064;47.974;13.826;2023-06-10T09:47:21;21.70;99.90
30250;DHT22;17064;47.974;13.826;2023-06-10T09:52:27;21.70;99.90
30250;DHT22;17064;47.974;13.826;2023-06-10T09:57:32;21.80;99.90
30250;DHT22;17064;47.974;13.826;2023-06-10T10:02:47;21.90;99.90
30250;DHT22;17064;47.974;13.826;2023-06-10T10:07:48;22.10;99.90
30250;DHT22;17064;47.974;13.826;2023-06-10T10:12:56;22.00;99.90
30250;DHT22;17064;47.974;13.826;2023-06-10T10:18:09;22.30;99.90
30250;DHT22;17064;47.974;13.826;2023-06-10T10:23:11;22.80;99.90
30250;DHT22;17064;47.974;13.826;2023-06-10T10:28:15;23.00;99.90
30250;DHT22;17064;47.974;13.826;2023-06-10T10:33:22;23.50;99.90
30250;DHT22;17064;47.974;13.826;2023-06-10T10:38:25;24.00;99.90
30250;DHT22;17064;47.974;13.826;2023-06-10T10:43:27;24.30;99.90
30250;DHT22;17064;47.974;13.826;2023-06-10T10:48:37;24.60;98.90
30250;DHT22;17064;47.974;13.826;2023-06-10T10:53:38;24.60;95.70
30250;DHT22;17064;47.974;13.826;2023-06-10T10:58:39;24.60;94.10
30250;DHT22;17064;47.974;13.826;2023-06-10T11:03:44;25.00;94.10
30250;DHT22;17064;47.974;13.826;2023-06-10T11:08:48;24.70;91.20
30250;DHT22;17064;47.974;13.826;2023-06-10T11:19:02;24.10;91.60
30250;DHT22;17064;47.974;13.826;2023-06-10T11:24:12;23.90;92.60
30250;DHT22;17064;47.974;13.826;2023-06-10T11:29:14;24.00;91.50
30250;DHT22;17064;47.974;13.826;2023-06-10T11:34:21;24.50;92.50
30250;DHT22;17064;47.974;13.826;2023-06-10T11:39:24;25.20;89.60
30250;DHT22;17064;47.974;13.826;2023-06-10T11:44:28;25.70;88.50
30250;DHT22;17064;47.974;13.826;2023-06-10T11:49:29;26.20;79.10
30250;DHT22;17064;47.974;13.826;2023-06-10T11:54:30;26.20;86.00
30250;DHT22;17064;47.974;13.826;2023-06-10T11:59:31;26.40;80.70
30250;DHT22;17064;47.974;13.826;2023-06-10T12:04:31;26.30;79.40
30250;DHT22;17064;47.974;13.826;2023-06-10T12:09:32;25.80;75.40
30250;DHT22;17064;47.974;13.826;2023-06-10T12:20:00;25.10;82.70
30250;DHT22;17064;47.974;13.826;2023-06-10T12:25:03;25.40;79.10
30250;DHT22;17064;47.974;13.826;2023-06-10T12:30:05;25.70;77.10
30250;DHT22;17064;47.974;13.826;2023-06-10T12:35:07;26.00;76.00
30250;DHT22;17064;47.974;13.826;2023-06-10T12:40:09;26.10;69.70
30250;DHT22;17064;47.974;13.826;2023-06-10T12:45:10;25.60;72.50
30250;DHT22;17064;47.974;13.826;2023-06-10T12:50:12;25.10;74.60
30250;DHT22;17064;47.974;13.826;2023-06-10T12:55:12;25.20;77.30
30250;DHT22;17064;47.974;13.826;2023-06-10T13:00:14;25.00;82.20
30250;DHT22;17064;47.974;13.826;2023-06-10T13:05:15;24.90;84.90
30250;DHT22;17064;47.974;13.826;2023-06-10T13:10:16;24.70;85.60
30250;DHT22;17064;47.974;13.826;2023-06-10T13:15:17;24.30;83.40
30250;DHT22;17064;47.974;13.826;2023-06-10T13:20:19;23.60;82.90
30250;DHT22;17064;47.974;13.826;2023-06-10T13:25:21;23.30;84.20
30250;DHT22;17064;47.974;13.826;2023-06-10T13:30:21;23.10;85.30
30250;DHT22;17064;47.974;13.826;2023-06-10T13:35:22;23.10;85.70
30250;DHT22;17064;47.974;13.826;2023-06-10T13:40:23;23.10;86.90
30250;DHT22;17064;47.974;13.826;2023-06-10T13:45:24;23.30;85.50
30250;DHT22;17064;47.974;13.826;2023-06-10T13:50:25;23.50;88.30
30250;DHT22;17064;47.974;13.826;2023-06-10T13:55:28;23.60;88.50
30250;DHT22;17064;47.974;13.826;2023-06-10T14:00:29;23.60;86.70
30250;DHT22;17064;47.974;13.826;2023-06-10T14:05:30;23.50;86.70
30250;DHT22;17064;47.974;13.826;2023-06-10T14:10:30;23.50;85.10
30250;DHT22;17064;47.974;13.826;2023-06-10T14:15:31;23.60;86.50
30250;DHT22;17064;47.974;13.826;2023-06-10T14:20:32;23.80;85.90
30250;DHT22;17064;47.974;13.826;2023-06-10T14:25:33;23.70;85.20
30250;DHT22;17064;47.974;13.826;2023-06-10T14:30:34;23.70;89.40
30250;DHT22;17064;47.974;13.826;2023-06-10T14:35:34;23.60;89.90
30250;DHT22;17064;47.974;13.826;2023-06-10T14:40:35;23.00;87.90
30250;DHT22;17064;47.974;13.826;2023-06-10T14:45:37;22.50;86.50
30250;DHT22;17064;47.974;13.826;2023-06-10T14:50:38;22.10;90.60
30250;DHT22;17064;47.974;13.826;2023-06-10T14:55:41;21.80;90.90
30250;DHT22;17064;47.974;13.826;2023-06-10T15:00:42;21.50;93.00
30250;DHT22;17064;47.974;13.826;2023-06-10T15:05:42;21.50;93.10
30250;DHT22;17064;47.974;13.826;2023-06-10T15:10:43;21.30;95.40
30250;DHT22;17064;47.974;13.826;2023-06-10T15:15:44;21.30;96.90
30250;DHT22;17064;47.974;13.826;2023-06-10T15:20:45;21.40;96.70
30250;DHT22;17064;47.974;13.826;2023-06-10T15:25:46;21.30;96.40
30250;DHT22;17064;47.974;13.826;2023-06-10T15:30:47;21.20;97.70
30250;DHT22;17064;47.974;13.826;2023-06-10T15:35:47;21.20;96.90
30250;DHT22;17064;47.974;13.826;2023-06-10T15:40:48;21.20;97.20
30250;DHT22;17064;47.974;13.826;2023-06-10T15:45:49;21.00;98.40
30250;DHT22;17064;47.974;13.826;2023-06-10T15:50:50;21.00;98.50
30250;DHT22;17064;47.974;13.826;2023-06-10T15:55:50;20.80;98.70
30250;DHT22;17064;47.974;13.826;2023-06-10T16:00:51;20.70;98.60
30250;DHT22;17064;47.974;13.826;2023-06-10T16:05:52;20.50;97.90
30250;DHT22;17064;47.974;13.826;2023-06-10T16:10:52;20.40;98.60
30250;DHT22;17064;47.974;13.826;2023-06-10T16:15:53;20.20;99.90
30250;DHT22;17064;47.974;13.826;2023-06-10T16:20:54;20.10;99.90
30250;DHT22;17064;47.974;13.826;2023-06-10T16:25:55;19.80;99.90
30250;DHT22;17064;47.974;13.826;2023-06-10T16:30:55;19.60;99.90
30250;DHT22;17064;47.974;13.826;2023-06-10T16:35:56;19.40;99.90
30250;DHT22;17064;47.974;13.826;2023-06-10T16:40:57;19.40;99.90
30250;DHT22;17064;47.974;13.826;2023-06-10T16:45:57;19.50;99.90
30250;DHT22;17064;47.974;13.826;2023-06-10T16:50:58;19.50;99.90
30250;DHT22;17064;47.974;13.826;2023-06-10T16:55:59;19.50;99.90
30250;DHT22;17064;47.974;13.826;2023-06-10T17:01:05;19.50;99.90
30250;DHT22;17064;47.974;13.826;2023-06-10T17:06:06;19.50;99.90
30250;DHT22;17064;47.974;13.826;2023-06-10T17:11:07;19.50;99.90
30250;DHT22;17064;47.974;13.826;2023-06-10T17:16:08;19.40;99.90
30250;DHT22;17064;47.974;13.826;2023-06-10T17:21:08;19.30;99.90
30250;DHT22;17064;47.974;13.826;2023-06-10T17:26:09;19.20;99.90
30250;DHT22;17064;47.974;13.826;2023-06-10T17:31:10;19.20;99.90
30250;DHT22;17064;47.974;13.826;2023-06-10T17:36:11;19.10;99.90
30250;DHT22;17064;47.974;13.826;2023-06-10T17:41:12;19.10;99.90
30250;DHT22;17064;47.974;13.826;2023-06-10T17:46:13;19.00;99.90
30250;DHT22;17064;47.974;13.826;2023-06-10T17:51:13;19.00;99.90
30250;DHT22;17064;47.974;13.826;2023-06-10T17:56:14;18.90;99.90
30250;DHT22;17064;47.974;13.826;2023-06-10T18:01:15;18.80;99.90
30250;DHT22;17064;47.974;13.826;2023-06-10T18:06:16;18.70;99.90
30250;DHT22;17064;47.974;13.826;2023-06-10T18:11:16;18.60;99.90
30250;DHT22;17064;47.974;13.826;2023-06-10T18:16:17;18.50;99.90
30250;DHT22;17064;47.974;13.826;2023-06-10T18:21:18;18.50;99.90
30250;DHT22;17064;47.974;13.826;2023-06-10T18:26:19;18.40;99.90
30250;DHT22;17064;47.974;13.826;2023-06-10T18:31:19;18.30;99.90
30250;DHT22;17064;47.974;13.826;2023-06-10T18:36:20;18.20;99.90
30250;DHT22;17064;47.974;13.826;2023-06-10T18:41:22;18.10;99.90
30250;DHT22;17064;47.974;13.826;2023-06-10T18:46:23;18.00;99.90
30250;DHT22;17064;47.974;13.826;2023-06-10T18:51:23;18.00;99.90
30250;DHT22;17064;47.974;13.826;2023-06-10T18:56:24;17.90;99.90
30250;DHT22;17064;47.974;13.826;2023-06-10T19:01:25;17.90;99.90
30250;DHT22;17064;47.974;13.826;2023-06-10T19:06:26;17.80;99.90
30250;DHT22;17064;47.974;13.826;2023-06-10T19:11:27;17.70;99.90
30250;DHT22;17064;47.974;13.826;2023-06-10T19:16:28;17.60;99.90
30250;DHT22;17064;47.974;13.826;2023-06-10T19:21:28;17.50;99.90
30250;DHT22;17064;47.974;13.826;2023-06-10T19:26:29;17.40;99.90
30250;DHT22;17064;47.974;13.826;2023-06-10T19:31:30;17.30;99.90
30250;DHT22;17064;47.974;13.826;2023-06-10T19:36:30;17.30;99.90
30250;DHT22;17064;47.974;13.826;2023-06-10T19:41:31;17.20;99.90
30250;DHT22;17064;47.974;13.826;2023-06-10T19:46:32;17.10;99.90
30250;DHT22;17064;47.974;13.826;2023-06-10T19:51:33;17.00;99.90
30250;DHT22;17064;47.974;13.826;2023-06-10T19:56:33;17.00;99.90
30250;DHT22;17064;47.974;13.826;2023-06-10T20:01:34;17.00;99.90
30250;DHT22;17064;47.974;13.826;2023-06-10T20:06:35;17.10;99.90
30250;DHT22;17064;47.974;13.826;2023-06-10T20:11:35;17.00;99.90
30250;DHT22;17064;47.974;13.826;2023-06-10T20:16:36;17.00;99.90
30250;DHT22;17064;47.974;13.826;2023-06-10T20:21:37;17.00;99.90
30250;DHT22;17064;47.974;13.826;2023-06-10T20:26:38;17.00;99.90
30250;DHT22;17064;47.974;13.826;2023-06-10T20:31:38;17.00;99.90
30250;DHT22;17064;47.974;13.826;2023-06-10T20:36:39;17.00;99.90
30250;DHT22;17064;47.974;13.826;2023-06-10T20:41:40;17.00;99.90
30250;DHT22;17064;47.974;13.826;2023-06-10T20:46:41;16.90;99.90
30250;DHT22;17064;47.974;13.826;2023-06-10T20:51:41;16.80;99.90
30250;DHT22;17064;47.974;13.826;2023-06-10T20:56:42;16.80;99.90
30250;DHT22;17064;47.974;13.826;2023-06-10T21:01:44;16.80;99.90
30250;DHT22;17064;47.974;13.826;2023-06-10T21:06:45;16.80;99.90
30250;DHT22;17064;47.974;13.826;2023-06-10T21:11:46;16.70;99.90
30250;DHT22;17064;47.974;13.826;2023-06-10T21:16:47;16.70;99.90
30250;DHT22;17064;47.974;13.826;2023-06-10T21:21:47;16.70;99.90
30250;DHT22;17064;47.974;13.826;2023-06-10T21:26:48;16.70;99.90
30250;DHT22;17064;47.974;13.826;2023-06-10T21:31:49;16.60;99.90
30250;DHT22;17064;47.974;13.826;2023-06-10T21:36:49;16.50;99.90
30250;DHT22;17064;47.974;13.826;2023-06-10T21:41:50;16.50;99.90
30250;DHT22;17064;47.974;13.826;2023-06-10T21:46:51;16.40;99.90
30250;DHT22;17064;47.974;13.826;2023-06-10T21:51:52;16.30;99.90
30250;DHT22;17064;47.974;13.826;2023-06-10T21:56:52;16.20;99.90
30250;DHT22;17064;47.974;13.826;2023-06-10T22:01:53;16.10;99.90
30250;DHT22;17064;47.974;13.826;2023-06-10T22:06:54;16.00;99.90
30250;DHT22;17064;47.974;13.826;2023-06-10T22:11:55;16.00;99.90
30250;DHT22;17064;47.974;13.826;2023-06-10T22:16:55;15.90;99.90
30250;DHT22;17064;47.974;13.826;2023-06-10T22:21:56;15.80;99.90
30250;DHT22;17064;47.974;13.826;2023-06-10T22:26:57;15.70;99.90
30250;DHT22;17064;47.974;13.826;2023-06-10T22:31:57;15.60;99.90
30250;DHT22;17064;47.974;13.826;2023-06-10T22:36:58;15.60;99.90
30250;DHT22;17064;47.974;13.826;2023-06-10T22:41:59;15.60;99.90
30250;DHT22;17064;47.974;13.826;2023-06-10T22:47:00;15.60;99.90
30250;DHT22;17064;47.974;13.826;2023-06-10T22:52:00;15.60;99.90
30250;DHT22;17064;47.974;13.826;2023-06-10T22:57:01;15.60;99.90
30250;DHT22;17064;47.974;13.826;2023-06-10T23:02:02;15.70;99.90
30250;DHT22;17064;47.974;13.826;2023-06-10T23:07:03;15.70;99.90
30250;DHT22;17064;47.974;13.826;2023-06-10T23:12:05;15.70;99.90
30250;DHT22;17064;47.974;13.826;2023-06-10T23:17:06;15.60;99.90
30250;DHT22;17064;47.974;13.826;2023-06-10T23:22:07;15.60;99.90
30250;DHT22;17064;47.974;13.826;2023-06-10T23:27:08;15.60;99.90
30250;DHT22;17064;47.974;13.826;2023-06-10T23:32:09;15.50;99.90
30250;DHT22;17064;47.974;13.826;2023-06-10T23:37:10;15.50;99.90
30250;DHT22;17064;47.974;13.826;2023-06-10T23:42:11;15.50;99.90
30250;DHT22;17064;47.974;13.826;2023-06-10T23:47:12;15.50;99.90
30250;DHT22;17064;47.974;13.826;2023-06-10T23:52:12;15.50;99.90
30250;DHT22;17064;47.974;13.826;2023-06-10T23:57:13;15.50;99.90
